createdAt,value
2022-10-18T00:00:42.047Z,0.00
2022-10-18T00:01:42.278Z,0.00
2022-10-18T00:02:42.277Z,0.00
2022-10-18T00:04:42.842Z,0.00
2022-10-18T00:05:42.799Z,0.00
2022-10-18T00:06:43.637Z,0.00
2022-10-18T00:07:42.944Z,0.00
2022-10-18T00:08:43.094Z,0.00
2022-10-18T00:09:43.183Z,0.00
2022-10-18T00:10:43.324Z,0.00
2022-10-18T00:11:43.433Z,0.00
2022-10-18T00:12:43.582Z,0.00
2022-10-18T00:13:43.663Z,0.00
2022-10-18T00:14:43.801Z,0.00
2022-10-18T00:15:43.954Z,0.00
2022-10-18T00:16:44.064Z,0.00
2022-10-18T00:17:44.174Z,0.00
2022-10-18T00:18:44.272Z,0.00
2022-10-18T00:19:44.373Z,0.00
2022-10-18T00:20:44.532Z,0.00
2022-10-18T00:22:44.766Z,0.00
2022-10-18T00:23:44.861Z,0.00
2022-10-18T00:24:44.962Z,0.00
2022-10-18T00:25:45.121Z,0.00
2022-10-18T00:26:45.190Z,0.00
2022-10-18T00:27:45.290Z,0.00
2022-10-18T00:28:45.456Z,0.00
2022-10-18T00:29:45.521Z,0.00
2022-10-18T00:30:45.688Z,0.00
2022-10-18T00:31:45.810Z,0.00
2022-10-18T00:32:45.890Z,0.00
2022-10-18T00:33:46.030Z,0.00
2022-10-18T00:34:46.179Z,0.00
2022-10-18T00:35:46.300Z,0.00
2022-10-18T00:36:46.399Z,0.00
2022-10-18T00:37:46.498Z,0.00
2022-10-18T00:38:46.598Z,0.00
2022-10-18T00:39:46.711Z,0.00
2022-10-18T00:40:46.837Z,0.00
2022-10-18T00:41:46.959Z,0.00
2022-10-18T00:42:47.107Z,0.00
2022-10-18T00:43:47.217Z,0.00
2022-10-18T00:44:47.329Z,0.00
2022-10-18T00:45:47.545Z,0.00
2022-10-18T00:46:47.584Z,0.00
2022-10-18T00:47:47.687Z,0.00
2022-10-18T00:48:47.866Z,0.00
2022-10-18T00:49:47.937Z,0.00
2022-10-18T00:50:48.028Z,0.00
2022-10-18T00:51:48.146Z,0.00
2022-10-18T00:52:48.258Z,0.00
2022-10-18T00:53:48.347Z,0.00
2022-10-18T00:54:48.487Z,0.00
2022-10-18T00:55:48.625Z,0.00
2022-10-18T00:56:48.795Z,0.00
2022-10-18T00:57:48.967Z,0.00
2022-10-18T00:58:49.025Z,0.00
2022-10-18T00:59:49.125Z,0.00
2022-10-18T01:00:49.235Z,0.00
2022-10-18T01:01:49.448Z,0.00
2022-10-18T01:02:49.475Z,0.00
2022-10-18T01:03:49.625Z,0.00
2022-10-18T01:04:49.753Z,0.00
2022-10-18T01:05:51.404Z,0.00
2022-10-18T01:06:50.046Z,0.00
2022-10-18T01:07:50.094Z,0.00
2022-10-18T01:08:50.173Z,0.00
2022-10-18T01:09:50.313Z,0.00
2022-10-18T01:10:50.444Z,0.00
2022-10-18T01:11:50.614Z,0.00
2022-10-18T01:12:50.759Z,0.00
2022-10-18T01:13:50.823Z,0.00
2022-10-18T01:14:50.914Z,0.00
2022-10-18T01:15:51.123Z,0.00
2022-10-18T01:16:51.172Z,0.00
2022-10-18T01:17:51.270Z,0.00
2022-10-18T01:18:51.364Z,0.00
2022-10-18T01:19:51.512Z,0.00
2022-10-18T01:20:51.612Z,0.00
2022-10-18T01:21:51.742Z,0.00
2022-10-18T01:22:51.853Z,0.00
2022-10-18T01:23:51.939Z,0.00
2022-10-18T01:24:52.146Z,0.00
2022-10-18T01:25:52.280Z,0.00
2022-10-18T01:26:52.341Z,0.00
2022-10-18T01:27:52.430Z,0.00
2022-10-18T01:28:52.630Z,0.00
2022-10-18T01:29:52.671Z,0.00
2022-10-18T01:30:52.811Z,0.00
2022-10-18T01:31:55.313Z,0.00
2022-10-18T01:32:53.068Z,0.00
2022-10-18T01:33:53.182Z,0.00
2022-10-18T01:34:53.289Z,0.00
2022-10-18T01:35:53.426Z,0.00
2022-10-18T01:36:53.580Z,0.00
2022-10-18T01:37:53.658Z,0.00
2022-10-18T01:38:53.812Z,0.00
2022-10-18T01:39:53.957Z,0.00
2022-10-18T01:40:54.116Z,0.00
2022-10-18T01:41:54.219Z,0.00
2022-10-18T01:42:54.423Z,0.00
2022-10-18T01:43:54.447Z,0.00
2022-10-18T01:44:54.545Z,0.00
2022-10-18T01:45:54.687Z,0.00
2022-10-18T01:46:54.806Z,0.00
2022-10-18T01:47:54.855Z,0.00
2022-10-18T01:48:54.956Z,0.00
2022-10-18T01:49:55.990Z,0.00
2022-10-18T01:50:55.185Z,0.00
2022-10-18T01:51:55.367Z,0.00
2022-10-18T01:52:55.395Z,0.00
2022-10-18T01:53:55.545Z,0.00
2022-10-18T01:54:55.628Z,0.00
2022-10-18T01:55:55.779Z,0.00
2022-10-18T01:56:55.914Z,0.00
2022-10-18T01:57:56.025Z,0.00
2022-10-18T01:58:56.124Z,0.00
2022-10-18T01:59:56.293Z,0.00
2022-10-18T02:00:56.403Z,0.00
2022-10-18T02:01:56.524Z,0.00
2022-10-18T02:02:56.607Z,0.00
2022-10-18T02:03:56.713Z,0.00
2022-10-18T02:04:56.803Z,0.00
2022-10-18T02:05:57.014Z,0.00
2022-10-18T02:06:57.083Z,0.00
2022-10-18T02:08:12.056Z,0.00
2022-10-18T02:08:58.282Z,0.00
2022-10-18T02:09:57.447Z,0.00
2022-10-18T02:10:57.532Z,0.00
2022-10-18T02:11:57.641Z,0.00
2022-10-18T02:12:57.730Z,0.00
2022-10-18T02:13:57.871Z,0.00
2022-10-18T02:14:57.985Z,0.00
2022-10-18T02:15:58.120Z,0.00
2022-10-18T02:16:58.240Z,0.00
2022-10-18T02:17:58.349Z,0.00
2022-10-18T02:18:58.546Z,0.00
2022-10-18T02:19:58.581Z,0.00
2022-10-18T02:20:58.680Z,0.00
2022-10-18T02:21:58.813Z,0.00
2022-10-18T02:22:58.907Z,0.00
2022-10-18T02:23:59.006Z,0.00
2022-10-18T02:24:59.092Z,0.00
2022-10-18T02:25:59.236Z,0.00
2022-10-18T02:26:59.390Z,0.00
2022-10-18T02:27:59.498Z,0.00
2022-10-18T02:28:59.645Z,0.00
2022-10-18T02:29:59.718Z,0.00
2022-10-18T02:30:59.803Z,0.00
2022-10-18T02:31:59.949Z,0.00
2022-10-18T02:33:00.096Z,0.00
2022-10-18T02:34:00.228Z,0.00
2022-10-18T02:35:00.329Z,0.00
2022-10-18T02:36:00.435Z,0.00
2022-10-18T02:37:00.597Z,0.00
2022-10-18T02:38:00.707Z,0.00
2022-10-18T02:39:00.816Z,0.00
2022-10-18T02:40:00.927Z,0.00
2022-10-18T02:41:01.039Z,0.00
2022-10-18T02:42:01.236Z,0.00
2022-10-18T02:43:01.253Z,0.00
2022-10-18T02:44:01.408Z,0.00
2022-10-18T02:45:01.533Z,0.00
2022-10-18T02:46:01.675Z,0.00
2022-10-18T02:47:01.776Z,0.00
2022-10-18T02:48:01.820Z,0.00
2022-10-18T02:49:01.910Z,0.00
2022-10-18T02:50:02.056Z,0.00
2022-10-18T02:51:02.147Z,0.00
2022-10-18T02:52:02.363Z,0.00
2022-10-18T02:53:02.403Z,0.00
2022-10-18T02:54:02.510Z,0.00
2022-10-18T02:55:03.588Z,0.00
2022-10-18T02:56:02.794Z,0.00
2022-10-18T02:57:02.884Z,0.00
2022-10-18T02:58:03.073Z,0.00
2022-10-18T02:59:03.174Z,0.00
2022-10-18T03:00:03.287Z,0.00
2022-10-18T03:01:03.381Z,0.00
2022-10-18T03:02:03.533Z,0.00
2022-10-18T03:03:03.606Z,0.00
2022-10-18T03:04:03.751Z,0.00
2022-10-18T03:05:03.862Z,0.00
2022-10-18T03:06:04.075Z,0.00
2022-10-18T03:07:04.171Z,0.00
2022-10-18T03:08:04.281Z,0.00
2022-10-18T03:09:04.391Z,0.00
2022-10-18T03:10:04.510Z,0.00
2022-10-18T03:11:04.621Z,0.00
2022-10-18T03:12:04.770Z,0.00
2022-10-18T03:13:04.838Z,0.00
2022-10-18T03:14:04.976Z,0.00
2022-10-18T03:15:05.100Z,0.00
2022-10-18T03:16:05.190Z,0.00
2022-10-18T03:17:05.413Z,0.00
2022-10-18T03:18:05.460Z,0.00
2022-10-18T03:19:05.579Z,0.00
2022-10-18T03:20:05.719Z,0.00
2022-10-18T03:21:05.860Z,0.00
2022-10-18T03:22:06.038Z,0.00
2022-10-18T03:23:06.168Z,0.00
2022-10-18T03:24:06.239Z,0.00
2022-10-18T03:25:06.358Z,0.00
2022-10-18T03:26:06.499Z,0.00
2022-10-18T03:27:06.648Z,0.00
2022-10-18T03:28:06.729Z,0.00
2022-10-18T03:29:06.864Z,0.00
2022-10-18T03:30:07.008Z,0.00
2022-10-18T03:31:07.147Z,0.00
2022-10-18T03:32:07.309Z,0.00
2022-10-18T03:33:07.362Z,0.00
2022-10-18T03:34:07.496Z,0.00
2022-10-18T03:35:07.616Z,0.00
2022-10-18T03:36:07.776Z,0.00
2022-10-18T03:37:07.894Z,0.00
2022-10-18T03:38:07.987Z,0.00
2022-10-18T03:39:08.116Z,0.00
2022-10-18T03:40:08.255Z,0.00
2022-10-18T03:41:08.366Z,0.00
2022-10-18T03:42:08.496Z,0.00
2022-10-18T03:43:08.634Z,0.00
2022-10-18T03:44:08.727Z,0.00
2022-10-18T03:45:08.835Z,0.00
2022-10-18T03:46:09.035Z,0.00
2022-10-18T03:47:09.215Z,0.00
2022-10-18T03:48:09.273Z,0.00
2022-10-18T03:49:09.318Z,0.00
2022-10-18T03:50:09.429Z,0.00
2022-10-18T03:51:09.506Z,0.00
2022-10-18T03:52:09.764Z,0.00
2022-10-18T03:53:09.744Z,0.00
2022-10-18T03:54:09.893Z,0.00
2022-10-18T03:55:09.996Z,0.00
2022-10-18T03:56:10.072Z,0.00
2022-10-18T03:57:10.334Z,0.00
2022-10-18T03:58:10.362Z,0.00
2022-10-18T03:59:10.453Z,0.00
2022-10-18T04:00:10.592Z,0.00
2022-10-18T04:01:10.776Z,0.00
2022-10-18T04:02:10.885Z,0.00
2022-10-18T04:03:10.992Z,0.00
2022-10-18T04:04:11.078Z,0.00
2022-10-18T04:05:11.232Z,0.00
2022-10-18T04:06:11.331Z,0.00
2022-10-18T04:07:11.449Z,0.00
2022-10-18T04:08:11.541Z,0.00
2022-10-18T04:09:11.640Z,0.00
2022-10-18T04:10:11.773Z,0.00
2022-10-18T04:11:11.913Z,0.00
2022-10-18T04:12:12.038Z,0.00
2022-10-18T04:13:12.160Z,0.00
2022-10-18T04:14:12.248Z,0.00
2022-10-18T04:15:12.400Z,0.00
2022-10-18T04:16:12.541Z,0.00
2022-10-18T04:17:12.699Z,0.00
2022-10-18T04:18:12.738Z,0.00
2022-10-18T04:19:12.910Z,0.00
2022-10-18T04:20:13.011Z,0.00
2022-10-18T04:21:13.095Z,0.00
2022-10-18T04:22:13.787Z,0.00
2022-10-18T04:23:13.372Z,0.00
2022-10-18T04:24:13.477Z,0.00
2022-10-18T04:25:13.652Z,0.00
2022-10-18T04:26:13.899Z,0.00
2022-10-18T04:27:13.917Z,0.00
2022-10-18T04:28:13.987Z,0.00
2022-10-18T04:29:14.107Z,0.00
2022-10-18T04:30:14.187Z,0.00
2022-10-18T04:31:14.330Z,0.00
2022-10-18T04:32:14.475Z,0.00
2022-10-18T04:33:14.519Z,0.00
2022-10-18T04:34:14.661Z,0.00
2022-10-18T04:35:14.796Z,0.00
2022-10-18T04:36:14.943Z,0.00
2022-10-18T04:37:15.064Z,0.00
2022-10-18T04:38:15.235Z,0.00
2022-10-18T04:39:15.272Z,0.00
2022-10-18T04:40:15.434Z,0.00
2022-10-18T04:41:15.535Z,0.00
2022-10-18T04:42:15.803Z,0.00
2022-10-18T04:43:15.723Z,0.00
2022-10-18T04:44:15.892Z,0.00
2022-10-18T04:45:15.993Z,0.00
2022-10-18T04:46:16.101Z,0.00
2022-10-18T04:47:16.234Z,0.00
2022-10-18T04:48:16.341Z,0.00
2022-10-18T04:49:16.453Z,0.00
2022-10-18T04:50:16.552Z,0.00
2022-10-18T04:51:16.656Z,0.00
2022-10-18T04:52:16.791Z,0.00
2022-10-18T04:53:16.832Z,0.00
2022-10-18T04:54:16.981Z,0.00
2022-10-18T04:55:17.090Z,0.00
2022-10-18T04:56:17.169Z,0.00
2022-10-18T04:57:17.496Z,0.00
2022-10-18T04:58:17.450Z,0.00
2022-10-18T04:59:17.558Z,0.00
2022-10-18T05:00:17.671Z,0.00
2022-10-18T05:01:17.827Z,0.00
2022-10-18T05:02:17.951Z,0.00
2022-10-18T05:03:18.046Z,0.00
2022-10-18T05:04:18.199Z,0.00
2022-10-18T05:05:18.300Z,0.00
2022-10-18T05:06:18.488Z,0.00
2022-10-18T05:07:18.589Z,0.00
2022-10-18T05:08:18.690Z,0.00
2022-10-18T05:09:18.839Z,0.00
2022-10-18T05:10:18.941Z,0.00
2022-10-18T05:11:19.040Z,0.00
2022-10-18T05:12:19.258Z,0.00
2022-10-18T05:13:19.317Z,0.00
2022-10-18T05:14:19.492Z,0.00
2022-10-18T05:15:19.618Z,0.00
2022-10-18T05:16:19.707Z,0.00
2022-10-18T05:17:19.927Z,0.00
2022-10-18T05:18:19.967Z,0.00
2022-10-18T05:19:20.128Z,0.00
2022-10-18T05:20:20.213Z,0.00
2022-10-18T05:21:20.367Z,0.00
2022-10-18T05:22:20.546Z,0.00
2022-10-18T05:23:20.575Z,0.00
2022-10-18T05:24:21.993Z,0.00
2022-10-18T05:25:20.867Z,0.00
2022-10-18T05:26:21.007Z,0.00
2022-10-18T05:27:21.085Z,0.00
2022-10-18T05:29:22.442Z,0.00
2022-10-18T05:30:21.435Z,0.00
2022-10-18T05:31:21.595Z,0.00
2022-10-18T05:32:21.744Z,0.00
2022-10-18T05:33:21.865Z,0.00
2022-10-18T05:34:21.974Z,0.00
2022-10-18T05:35:22.071Z,0.00
2022-10-18T05:36:22.203Z,0.00
2022-10-18T05:37:26.113Z,0.00
2022-10-18T05:38:23.509Z,0.00
2022-10-18T05:39:22.584Z,0.00
2022-10-18T05:40:22.703Z,0.00
2022-10-18T05:41:22.793Z,0.00
2022-10-18T05:42:22.941Z,0.00
2022-10-18T05:43:23.022Z,0.00
2022-10-18T05:44:23.171Z,0.00
2022-10-18T05:45:23.272Z,0.00
2022-10-18T05:46:23.420Z,0.00
2022-10-18T05:47:23.602Z,0.00
2022-10-18T05:48:23.623Z,0.00
2022-10-18T05:49:23.756Z,0.00
2022-10-18T05:50:23.912Z,0.00
2022-10-18T05:51:24.013Z,0.00
2022-10-18T05:52:24.153Z,0.00
2022-10-18T05:53:36.311Z,0.00
2022-10-18T05:54:25.394Z,0.00
2022-10-18T05:55:24.470Z,0.00
2022-10-18T05:56:24.579Z,0.00
2022-10-18T05:57:24.690Z,0.00
2022-10-18T05:58:24.790Z,0.00
2022-10-18T05:59:24.898Z,0.00
2022-10-18T06:00:25.001Z,0.00
2022-10-18T06:01:25.103Z,0.00
2022-10-18T06:02:25.289Z,0.00
2022-10-18T06:03:25.320Z,0.00
2022-10-18T06:04:25.422Z,5.62
2022-10-18T06:05:25.541Z,5.62
2022-10-18T06:06:25.750Z,5.62
2022-10-18T06:07:25.815Z,5.62
2022-10-18T06:08:25.883Z,5.62
2022-10-18T06:09:26.047Z,5.62
2022-10-18T06:10:26.175Z,5.62
2022-10-18T06:11:26.255Z,5.62
2022-10-18T06:12:26.359Z,11.25
2022-10-18T06:13:26.455Z,11.25
2022-10-18T06:14:26.606Z,11.25
2022-10-18T06:15:26.686Z,11.25
2022-10-18T06:16:32.040Z,11.25
2022-10-18T06:17:31.746Z,11.25
2022-10-18T06:18:27.073Z,11.25
2022-10-18T06:19:27.171Z,11.25
2022-10-18T06:20:27.335Z,16.88
2022-10-18T06:21:27.455Z,16.88
2022-10-18T06:22:27.629Z,16.88
2022-10-18T06:23:27.738Z,16.88
2022-10-18T06:24:28.785Z,16.88
2022-10-18T06:25:27.963Z,16.88
2022-10-18T06:26:28.078Z,16.88
2022-10-18T06:27:28.204Z,16.88
2022-10-18T06:28:28.353Z,11.25
2022-10-18T06:29:28.416Z,11.25
2022-10-18T06:30:28.561Z,11.25
2022-10-18T06:31:28.731Z,11.25
2022-10-18T06:32:28.902Z,11.25
2022-10-18T06:33:28.933Z,11.25
2022-10-18T06:34:29.065Z,11.25
2022-10-18T06:35:29.205Z,11.25
2022-10-18T06:36:29.356Z,11.25
2022-10-18T06:37:29.930Z,11.25
2022-10-18T06:38:29.641Z,11.25
2022-10-18T06:39:29.780Z,11.25
2022-10-18T06:40:29.932Z,11.25
2022-10-18T06:41:30.067Z,16.88
2022-10-18T06:42:30.413Z,16.88
2022-10-18T06:43:30.262Z,16.88
2022-10-18T06:44:30.380Z,16.88
2022-10-18T06:45:30.461Z,16.88
2022-10-18T06:46:30.640Z,16.88
2022-10-18T06:47:30.745Z,16.88
2022-10-18T06:48:30.892Z,16.88
2022-10-18T06:49:31.010Z,16.88
2022-10-18T06:50:31.122Z,22.50
2022-10-18T06:51:31.269Z,22.50
2022-10-18T06:52:32.195Z,28.12
2022-10-18T06:53:31.422Z,28.12
2022-10-18T06:54:31.538Z,28.12
2022-10-18T06:55:31.639Z,33.75
2022-10-18T06:56:31.752Z,39.38
2022-10-18T06:57:31.847Z,45.00
2022-10-18T06:58:32.001Z,50.62
2022-10-18T06:59:32.128Z,56.25
2022-10-18T07:00:32.248Z,61.88
2022-10-18T07:01:32.502Z,67.50
2022-10-18T07:02:32.871Z,78.75
2022-10-18T07:03:32.588Z,95.62
2022-10-18T07:04:32.727Z,101.25
2022-10-18T07:06:33.036Z,95.62
2022-10-18T07:07:33.206Z,106.88
2022-10-18T07:08:33.160Z,118.12
2022-10-18T07:09:33.266Z,123.75
2022-10-18T07:10:33.355Z,123.75
2022-10-18T07:11:33.527Z,118.12
2022-10-18T07:12:33.623Z,118.12
2022-10-18T07:13:33.717Z,118.12
2022-10-18T07:14:33.864Z,118.12
2022-10-18T07:16:34.176Z,135.00
2022-10-18T07:17:34.499Z,146.25
2022-10-18T07:18:34.293Z,146.25
2022-10-18T07:19:34.444Z,146.25
2022-10-18T07:20:34.534Z,146.25
2022-10-18T07:21:34.654Z,151.88
2022-10-18T07:22:34.762Z,146.25
2022-10-18T07:23:34.865Z,140.62
2022-10-18T07:24:34.969Z,129.38
2022-10-18T07:25:35.094Z,118.12
2022-10-18T07:26:35.363Z,112.50
2022-10-18T07:27:35.451Z,112.50
2022-10-18T07:28:35.572Z,118.12
2022-10-18T07:29:35.571Z,106.88
2022-10-18T07:30:35.741Z,101.25
2022-10-18T07:31:35.903Z,101.25
2022-10-18T07:32:35.992Z,106.88
2022-10-18T07:33:36.035Z,112.50
2022-10-18T07:34:36.170Z,118.12
2022-10-18T07:35:36.302Z,118.12
2022-10-18T07:36:36.461Z,112.50
2022-10-18T07:37:36.855Z,112.50
2022-10-18T07:38:36.693Z,118.12
2022-10-18T07:39:36.821Z,123.75
2022-10-18T07:40:36.941Z,129.38
2022-10-18T07:41:37.123Z,129.38
2022-10-18T07:42:37.177Z,135.00
2022-10-18T07:43:37.270Z,146.25
2022-10-18T07:44:37.359Z,168.75
2022-10-18T07:46:37.647Z,219.38
2022-10-18T07:47:37.984Z,230.62
2022-10-18T07:48:37.809Z,258.75
2022-10-18T07:49:37.898Z,292.50
2022-10-18T07:50:38.049Z,292.50
2022-10-18T07:51:38.158Z,298.12
2022-10-18T07:52:38.244Z,286.88
2022-10-18T07:53:38.398Z,286.88
2022-10-18T07:54:38.576Z,286.88
2022-10-18T07:55:38.606Z,281.25
2022-10-18T07:56:38.747Z,270.00
2022-10-18T07:57:38.849Z,241.88
2022-10-18T07:58:38.945Z,230.62
2022-10-18T07:59:39.094Z,219.38
2022-10-18T08:00:39.217Z,219.38
2022-10-18T08:01:39.480Z,236.25
2022-10-18T08:02:39.486Z,275.62
2022-10-18T08:03:39.587Z,326.25
2022-10-18T08:04:39.716Z,354.38
2022-10-18T08:05:39.931Z,354.38
2022-10-18T08:06:40.165Z,337.50
2022-10-18T08:07:40.119Z,309.38
2022-10-18T08:08:40.256Z,315.00
2022-10-18T08:09:40.405Z,326.25
2022-10-18T08:10:40.513Z,326.25
2022-10-18T08:11:40.694Z,337.50
2022-10-18T08:12:40.732Z,348.75
2022-10-18T08:13:40.896Z,331.88
2022-10-18T08:14:40.994Z,343.12
2022-10-18T08:15:41.104Z,343.12
2022-10-18T08:16:41.354Z,365.62
2022-10-18T08:17:41.333Z,360.00
2022-10-18T08:18:41.494Z,303.75
2022-10-18T08:19:52.719Z,208.12
2022-10-18T08:20:42.717Z,151.88
2022-10-18T08:21:41.842Z,151.88
2022-10-18T08:22:41.943Z,151.88
2022-10-18T08:23:42.042Z,140.62
2022-10-18T08:24:42.187Z,135.00
2022-10-18T08:25:42.285Z,140.62
2022-10-18T08:26:42.481Z,135.00
2022-10-18T08:27:42.560Z,129.38
2022-10-18T08:28:49.046Z,129.38
2022-10-18T08:29:43.838Z,140.62
2022-10-18T08:30:42.891Z,140.62
2022-10-18T08:31:43.156Z,129.38
2022-10-18T08:32:43.172Z,135.00
2022-10-18T08:33:43.290Z,146.25
2022-10-18T08:34:43.392Z,157.50
2022-10-18T08:35:43.491Z,208.12
2022-10-18T08:36:43.678Z,253.12
2022-10-18T08:37:43.740Z,286.88
2022-10-18T08:38:43.830Z,331.88
2022-10-18T08:39:43.939Z,326.25
2022-10-18T08:40:44.113Z,315.00
2022-10-18T08:41:44.286Z,303.75
2022-10-18T08:42:44.327Z,303.75
2022-10-18T08:43:44.505Z,326.25
2022-10-18T08:44:44.621Z,371.25
2022-10-18T08:45:44.729Z,433.12
2022-10-18T08:46:45.021Z,461.25
2022-10-18T08:47:44.968Z,466.88
2022-10-18T08:48:45.088Z,478.12
2022-10-18T08:49:47.151Z,495.00
2022-10-18T08:50:45.278Z,466.88
2022-10-18T08:51:45.609Z,416.25
2022-10-18T08:52:45.569Z,360.00
2022-10-18T08:53:45.678Z,320.62
2022-10-18T08:54:45.837Z,298.12
2022-10-18T08:55:45.941Z,292.50
2022-10-18T08:56:46.124Z,309.38
2022-10-18T08:57:46.167Z,337.50
2022-10-18T08:58:46.266Z,360.00
2022-10-18T08:59:46.369Z,388.12
2022-10-18T09:00:46.517Z,427.50
2022-10-18T09:01:49.843Z,478.12
2022-10-18T09:02:46.755Z,534.38
2022-10-18T09:03:46.889Z,579.38
2022-10-18T09:04:46.976Z,562.50
2022-10-18T09:05:47.120Z,523.12
2022-10-18T09:06:47.677Z,506.25
2022-10-18T09:07:47.502Z,517.50
2022-10-18T09:08:47.520Z,517.50
2022-10-18T09:09:47.620Z,500.62
2022-10-18T09:10:47.777Z,483.75
2022-10-18T09:11:47.951Z,478.12
2022-10-18T09:12:47.997Z,489.38
2022-10-18T09:13:48.136Z,495.00
2022-10-18T09:14:48.760Z,495.00
2022-10-18T09:15:48.433Z,472.50
2022-10-18T09:16:48.651Z,421.88
2022-10-18T09:17:48.653Z,360.00
2022-10-18T09:18:48.743Z,337.50
2022-10-18T09:19:48.969Z,320.62
2022-10-18T09:20:49.015Z,298.12
2022-10-18T09:21:49.285Z,292.50
2022-10-18T09:22:49.325Z,320.62
2022-10-18T09:23:49.456Z,393.75
2022-10-18T09:24:49.571Z,433.12
2022-10-18T09:25:49.702Z,444.38
2022-10-18T09:26:49.984Z,433.12
2022-10-18T09:27:49.922Z,450.00
2022-10-18T09:28:50.056Z,489.38
2022-10-18T09:29:50.146Z,500.62
2022-10-18T09:30:50.244Z,438.75
2022-10-18T09:31:50.373Z,354.38
2022-10-18T09:32:50.483Z,292.50
2022-10-18T09:33:50.591Z,241.88
2022-10-18T09:34:50.685Z,230.62
2022-10-18T09:35:50.836Z,241.88
2022-10-18T09:36:50.951Z,264.38
2022-10-18T09:37:51.058Z,292.50
2022-10-18T09:38:51.151Z,337.50
2022-10-18T09:39:51.242Z,376.88
2022-10-18T09:40:51.349Z,393.75
2022-10-18T09:41:51.451Z,393.75
2022-10-18T09:42:51.530Z,416.25
2022-10-18T09:43:51.689Z,444.38
2022-10-18T09:44:51.851Z,455.62
2022-10-18T09:45:51.898Z,466.88
2022-10-18T09:46:52.160Z,506.25
2022-10-18T09:47:52.163Z,573.75
2022-10-18T09:48:52.309Z,618.75
2022-10-18T09:49:52.419Z,624.38
2022-10-18T09:50:52.613Z,590.62
2022-10-18T09:51:52.668Z,551.25
2022-10-18T09:52:52.768Z,551.25
2022-10-18T09:53:52.848Z,568.12
2022-10-18T09:54:52.991Z,579.38
2022-10-18T09:55:53.127Z,596.25
2022-10-18T09:56:53.382Z,596.25
2022-10-18T09:57:53.427Z,601.88
2022-10-18T09:58:53.538Z,545.62
2022-10-18T09:59:53.637Z,500.62
2022-10-18T10:00:53.738Z,466.88
2022-10-18T10:01:53.866Z,455.62
2022-10-18T10:02:54.017Z,478.12
2022-10-18T10:03:54.087Z,511.88
2022-10-18T10:04:54.329Z,562.50
2022-10-18T10:05:54.357Z,624.38
2022-10-18T10:06:54.615Z,652.50
2022-10-18T10:07:54.597Z,624.38
2022-10-18T10:08:54.736Z,590.62
2022-10-18T10:09:54.886Z,618.75
2022-10-18T10:10:54.979Z,635.62
2022-10-18T10:11:55.103Z,658.12
2022-10-18T10:12:55.196Z,708.75
2022-10-18T10:13:55.283Z,776.25
2022-10-18T10:14:55.433Z,759.38
2022-10-18T10:15:55.526Z,708.75
2022-10-18T10:16:55.625Z,686.25
2022-10-18T10:17:55.712Z,646.88
2022-10-18T10:18:55.864Z,568.12
2022-10-18T10:19:55.954Z,421.88
2022-10-18T10:20:56.054Z,376.88
2022-10-18T10:21:56.237Z,348.75
2022-10-18T10:22:56.284Z,348.75
2022-10-18T10:23:56.385Z,405.00
2022-10-18T10:24:56.522Z,506.25
2022-10-18T10:25:56.618Z,551.25
2022-10-18T10:26:56.831Z,573.75
2022-10-18T10:27:56.884Z,568.12
2022-10-18T10:28:57.057Z,545.62
2022-10-18T10:29:57.102Z,511.88
2022-10-18T10:30:57.192Z,433.12
2022-10-18T10:31:57.353Z,421.88
2022-10-18T10:32:57.452Z,528.75
2022-10-18T10:33:57.563Z,894.38
2022-10-18T10:34:57.650Z,1119.38
2022-10-18T10:35:57.810Z,866.25
2022-10-18T10:36:57.922Z,551.25
2022-10-18T10:37:58.011Z,483.75
2022-10-18T10:38:58.103Z,461.25
2022-10-18T10:40:17.388Z,489.38
2022-10-18T10:40:59.361Z,551.25
2022-10-18T10:41:58.502Z,652.50
2022-10-18T10:43:08.839Z,826.88
2022-10-18T10:43:59.743Z,933.75
2022-10-18T10:44:58.841Z,961.88
2022-10-18T10:45:58.953Z,978.75
2022-10-18T10:46:59.121Z,995.62
2022-10-18T10:47:59.170Z,815.62
2022-10-18T10:49:21.659Z,815.62
2022-10-18T10:50:00.402Z,883.12
2022-10-18T10:50:59.540Z,894.38
2022-10-18T10:52:08.521Z,810.00
2022-10-18T10:53:00.770Z,720.00
2022-10-18T10:53:59.909Z,686.25
2022-10-18T10:56:01.152Z,590.62
2022-10-18T10:57:00.328Z,680.62
2022-10-18T10:58:00.441Z,815.62
2022-10-18T10:59:00.626Z,765.00
2022-10-18T11:00:00.679Z,590.62
2022-10-18T11:01:00.779Z,455.62
2022-10-18T11:02:00.902Z,410.62
2022-10-18T11:03:10.947Z,500.62
2022-10-18T11:04:02.214Z,624.38
2022-10-18T11:05:01.264Z,663.75
2022-10-18T11:06:01.399Z,658.12
2022-10-18T11:07:02.138Z,562.50
2022-10-18T11:08:01.666Z,601.88
2022-10-18T11:09:01.738Z,686.25
2022-10-18T11:10:01.920Z,714.38
2022-10-18T11:11:02.018Z,646.88
2022-10-18T11:12:02.117Z,551.25
2022-10-18T11:13:02.218Z,545.62
2022-10-18T11:14:21.072Z,540.00
2022-10-18T11:15:03.419Z,528.75
2022-10-18T11:16:02.588Z,562.50
2022-10-18T11:17:05.615Z,618.75
2022-10-18T11:18:02.849Z,725.62
2022-10-18T11:19:02.927Z,821.25
2022-10-18T11:20:03.018Z,860.62
2022-10-18T11:21:03.167Z,832.50
2022-10-18T11:22:03.297Z,742.50
2022-10-18T11:23:03.381Z,663.75
2022-10-18T11:24:03.535Z,641.25
2022-10-18T11:25:03.647Z,624.38
2022-10-18T11:26:03.796Z,585.00
2022-10-18T11:27:03.946Z,562.50
2022-10-18T11:28:04.115Z,585.00
2022-10-18T11:29:04.210Z,646.88
2022-10-18T11:30:04.317Z,765.00
2022-10-18T11:31:04.458Z,725.62
2022-10-18T11:32:04.661Z,691.88
2022-10-18T11:33:04.659Z,686.25
2022-10-18T11:34:09.179Z,669.38
2022-10-18T11:35:05.894Z,556.88
2022-10-18T11:36:05.026Z,466.88
2022-10-18T11:37:26.276Z,444.38
2022-10-18T11:38:06.244Z,461.25
2022-10-18T11:39:05.404Z,540.00
2022-10-18T11:40:05.525Z,635.62
2022-10-18T11:41:05.615Z,680.62
2022-10-18T11:42:05.763Z,708.75
2022-10-18T11:43:05.816Z,646.88
2022-10-18T11:44:05.944Z,562.50
2022-10-18T11:45:06.024Z,568.12
2022-10-18T11:46:06.192Z,635.62
2022-10-18T11:47:06.397Z,624.38
2022-10-18T11:48:06.447Z,624.38
2022-10-18T11:49:06.532Z,635.62
2022-10-18T11:50:06.665Z,641.25
2022-10-18T11:51:06.792Z,669.38
2022-10-18T11:52:08.704Z,748.12
2022-10-18T11:53:07.032Z,787.50
2022-10-18T11:54:07.172Z,804.38
2022-10-18T11:55:07.272Z,787.50
2022-10-18T11:56:07.423Z,697.50
2022-10-18T11:57:08.584Z,601.88
2022-10-18T11:58:07.680Z,601.88
2022-10-18T11:59:07.781Z,613.12
2022-10-18T12:00:07.854Z,601.88
2022-10-18T12:01:08.011Z,562.50
2022-10-18T12:02:08.143Z,500.62
2022-10-18T12:03:08.349Z,489.38
2022-10-18T12:04:08.359Z,517.50
2022-10-18T12:05:24.774Z,472.50
2022-10-18T12:06:09.581Z,472.50
2022-10-18T12:07:08.812Z,444.38
2022-10-18T12:08:08.792Z,421.88
2022-10-18T12:09:08.959Z,421.88
2022-10-18T12:10:09.042Z,438.75
2022-10-18T12:11:09.170Z,393.75
2022-10-18T12:12:09.350Z,371.25
2022-10-18T12:13:09.520Z,376.88
2022-10-18T12:14:09.461Z,382.50
2022-10-18T12:15:09.621Z,371.25
2022-10-18T12:16:09.731Z,354.38
2022-10-18T12:18:10.998Z,382.50
2022-10-18T12:19:10.103Z,365.62
2022-10-18T12:20:10.309Z,371.25
2022-10-18T12:21:10.311Z,382.50
2022-10-18T12:22:10.480Z,399.38
2022-10-18T12:23:10.542Z,354.38
2022-10-18T12:24:10.652Z,343.12
2022-10-18T12:25:10.788Z,298.12
2022-10-18T12:26:10.898Z,331.88
2022-10-18T12:27:11.078Z,354.38
2022-10-18T12:28:11.138Z,365.62
2022-10-18T12:29:11.249Z,371.25
2022-10-18T12:30:11.348Z,354.38
2022-10-18T12:31:11.495Z,343.12
2022-10-18T12:32:11.737Z,337.50
2022-10-18T12:33:27.320Z,337.50
2022-10-18T12:34:12.908Z,343.12
2022-10-18T12:35:12.076Z,348.75
2022-10-18T12:36:12.185Z,331.88
2022-10-18T12:37:12.296Z,348.75
2022-10-18T12:38:12.387Z,343.12
2022-10-18T12:39:12.637Z,393.75
2022-10-18T12:40:15.776Z,421.88
2022-10-18T12:41:13.834Z,455.62
2022-10-18T12:42:13.016Z,489.38
2022-10-18T12:43:13.056Z,517.50
2022-10-18T12:44:13.219Z,556.88
2022-10-18T12:45:13.343Z,590.62
2022-10-18T12:46:14.047Z,585.00
2022-10-18T12:47:13.615Z,579.38
2022-10-18T12:48:13.665Z,556.88
2022-10-18T12:49:13.767Z,506.25
2022-10-18T12:50:13.909Z,455.62
2022-10-18T12:51:14.015Z,427.50
2022-10-18T12:52:14.155Z,416.25
2022-10-18T12:53:14.295Z,444.38
2022-10-18T12:54:14.451Z,483.75
2022-10-18T12:55:16.902Z,472.50
2022-10-18T12:56:14.646Z,466.88
2022-10-18T12:57:14.815Z,489.38
2022-10-18T12:58:14.879Z,495.00
2022-10-18T12:59:15.073Z,472.50
2022-10-18T13:00:15.115Z,438.75
2022-10-18T13:01:15.244Z,405.00
2022-10-18T13:02:15.391Z,354.38
2022-10-18T13:03:15.503Z,343.12